< Typhoon 198909 1989 Season Typhoon 198911 >
Typhoon 198910 (IRVING)
General InformationTrack Information on Google MapsDetailed Wind InformationList of All Images || Disaster Info.ResourceGoogle EarthGE AnimationAtom FeedGeoJSON
Detalied Best Track (Time Zone = UTC)
Year Month Day Hour Lat. Long. Pressure (hPa) Wind (kt) Class Image Chart
1989 7 19 12 12.0 128.0 1004 0 2 Image Chart
1989 7 19 18 13.0 126.0 1004 0 2 Image Chart
1989 7 20 00 13.0 124.5 1002 0 2 Image Chart
1989 7 20 06 13.5 122.5 1002 0 2 Image Chart
1989 7 20 12 14.0 121.0 1002 0 2 Image Chart
1989 7 20 18 14.5 119.0 1000 0 2 Image Chart
1989 7 21 00 15.0 117.0 996 35 3 Image Chart
1989 7 21 06 15.0 115.0 994 40 3 Image Chart
1989 7 21 12 15.0 113.5 992 45 3 Image Chart
1989 7 21 18 15.0 112.4 985 55 4 Image Chart
1989 7 22 00 15.3 111.7 985 55 4 Image Chart
1989 7 22 06 15.8 111.0 985 55 4 Image Chart
1989 7 22 12 16.4 110.1 985 50 4 Image Chart
1989 7 22 18 16.6 109.4 985 45 3 Image Chart
1989 7 23 00 17.1 108.6 990 45 3 Image Chart
1989 7 23 06 17.6 107.8 990 45 3 Image Chart
1989 7 23 12 18.0 107.0 992 45 3 Image Chart
1989 7 23 18 18.7 106.3 994 40 3 Image Chart
1989 7 24 00 19.5 105.8 996 40 3 Image Chart
1989 7 24 06 20.1 105.0 998 35 3 Image Chart
1989 7 24 12 20.5 104.0 1000 0 2 Image Chart
Japan Meteorological Agency Best Track Data | Correction Date : 1992-10-21
< Typhoon 198909 1989 Season Typhoon 198911 >

Help